createdAt,value
2022-08-27T00:00:45.047Z,7.20
2022-08-27T00:05:42.087Z,6.97
2022-08-27T00:10:39.288Z,6.63
2022-08-27T00:15:35.690Z,6.35
2022-08-27T00:20:32.092Z,6.65
2022-08-27T00:25:28.971Z,6.22
2022-08-27T00:30:25.513Z,7.23
2022-08-27T00:35:21.903Z,7.38
2022-08-27T00:40:21.514Z,6.15
2022-08-27T00:45:21.226Z,6.05
2022-08-27T00:50:24.167Z,8.55
2022-08-27T00:55:25.653Z,8.15
2022-08-27T01:00:25.147Z,6.80
2022-08-27T01:05:25.383Z,7.15
2022-08-27T01:10:26.828Z,6.47
2022-08-27T01:15:25.611Z,7.03
2022-08-27T01:20:29.945Z,6.70
2022-08-27T01:25:27.459Z,6.03
2022-08-27T01:30:24.115Z,6.72
2022-08-27T01:35:23.376Z,6.05
2022-08-27T01:40:21.194Z,5.57
2022-08-27T01:45:30.160Z,6.28
2022-08-27T01:50:31.757Z,6.18
2022-08-27T01:55:31.126Z,7.00
2022-08-27T02:00:32.790Z,6.28
2022-08-27T02:05:30.486Z,5.45
2022-08-27T02:10:34.165Z,6.22
2022-08-27T02:15:31.380Z,6.80
2022-08-27T02:20:27.991Z,6.00
2022-08-27T02:25:27.652Z,4.70
2022-08-27T02:30:24.503Z,5.13
2022-08-27T02:35:23.612Z,5.47
2022-08-27T02:40:23.171Z,5.22
2022-08-27T02:45:20.730Z,5.88
2022-08-27T02:50:17.427Z,5.72
2022-08-27T02:55:17.196Z,5.47
2022-08-27T03:00:17.904Z,5.45
2022-08-27T03:05:15.609Z,5.65
2022-08-27T03:10:14.932Z,5.65
2022-08-27T03:15:16.957Z,6.55
2022-08-27T03:20:13.395Z,5.43
2022-08-27T03:25:09.943Z,4.78
2022-08-27T03:30:10.587Z,5.53
2022-08-27T03:35:08.115Z,4.00
2022-08-27T03:40:06.106Z,4.60
2022-08-27T03:45:02.724Z,4.63
2022-08-27T03:50:00.651Z,4.30
2022-08-27T03:54:58.811Z,3.70
2022-08-27T03:59:55.339Z,3.30
2022-08-27T04:04:51.718Z,3.83
2022-08-27T04:09:48.157Z,3.25
2022-08-27T04:14:44.533Z,3.13
2022-08-27T04:19:40.962Z,2.95
2022-08-27T04:24:38.077Z,3.47
2022-08-27T04:29:34.816Z,3.57
2022-08-27T04:34:33.079Z,3.33
2022-08-27T04:39:31.141Z,2.72
2022-08-27T04:44:31.479Z,3.55
2022-08-27T04:49:29.572Z,2.35
2022-08-27T04:54:32.988Z,3.13
2022-08-27T04:59:31.372Z,2.95
2022-08-27T05:04:29.435Z,2.67
2022-08-27T05:09:26.640Z,3.53
2022-08-27T05:14:25.323Z,2.35
2022-08-27T05:19:21.785Z,1.88
2022-08-27T05:24:18.796Z,2.65
2022-08-27T05:29:15.485Z,2.50
2022-08-27T05:34:16.846Z,2.10
2022-08-27T05:39:21.233Z,2.30
2022-08-27T05:44:40.622Z,1.95
2022-08-27T05:49:34.070Z,2.60
2022-08-27T05:54:30.431Z,3.45
2022-08-27T05:59:45.393Z,2.92
2022-08-27T06:04:41.804Z,2.03
2022-08-27T06:09:39.067Z,3.05
2022-08-27T06:14:37.085Z,1.63
2022-08-27T06:19:34.794Z,2.58
2022-08-27T06:24:31.172Z,1.98
2022-08-27T06:29:27.731Z,2.00
2022-08-27T06:34:24.119Z,2.13
2022-08-27T06:39:20.542Z,2.20
2022-08-27T06:44:17.798Z,2.08
2022-08-27T06:49:14.184Z,1.98
2022-08-27T06:54:12.233Z,1.85
2022-08-27T06:59:11.781Z,2.38
2022-08-27T07:04:11.391Z,2.53
2022-08-27T07:09:09.395Z,2.47
2022-08-27T07:14:06.760Z,1.92
2022-08-27T07:19:05.072Z,3.08
2022-08-27T07:24:05.354Z,2.47
2022-08-27T07:29:03.339Z,2.40
2022-08-27T07:33:59.759Z,2.92
2022-08-27T07:39:00.895Z,2.58
2022-08-27T07:44:17.948Z,2.58
2022-08-27T07:49:14.403Z,1.35
2022-08-27T07:54:10.954Z,2.50
2022-08-27T07:59:08.203Z,2.38
2022-08-27T08:04:05.031Z,1.83
2022-08-27T08:09:01.404Z,1.98
2022-08-27T08:13:58.695Z,2.35
2022-08-27T08:18:55.352Z,1.83
2022-08-27T08:23:52.084Z,2.38
2022-08-27T08:28:48.486Z,1.88
2022-08-27T08:33:46.207Z,2.90
2022-08-27T08:38:43.536Z,2.63
2022-08-27T08:43:51.514Z,2.35
2022-08-27T08:48:56.041Z,1.50
2022-08-27T08:53:53.878Z,2.58
2022-08-27T08:58:59.648Z,1.92
2022-08-27T09:03:59.747Z,1.98
2022-08-27T09:08:56.400Z,2.13
2022-08-27T09:13:59.947Z,2.28
2022-08-27T09:18:56.367Z,2.25
2022-08-27T09:24:05.023Z,2.30
2022-08-27T09:29:21.403Z,2.42
2022-08-27T09:34:17.781Z,2.20
2022-08-27T09:39:14.247Z,2.67
2022-08-27T09:44:14.042Z,2.92
2022-08-27T09:49:16.280Z,2.20
2022-08-27T09:54:31.916Z,2.45
2022-08-27T09:59:36.824Z,2.78
2022-08-27T10:04:52.028Z,2.92
2022-08-27T10:09:57.512Z,4.25
2022-08-27T10:14:59.228Z,2.95
2022-08-27T10:20:30.023Z,3.85
2022-08-27T10:25:52.521Z,3.05
2022-08-27T10:31:13.471Z,4.25
2022-08-27T10:36:51.341Z,3.20
2022-08-27T10:42:17.056Z,3.78
2022-08-27T10:47:40.756Z,2.80
2022-08-27T10:52:51.734Z,3.17
2022-08-27T10:58:28.792Z,3.30
2022-08-27T11:03:40.590Z,3.40
2022-08-27T11:08:43.691Z,4.47
2022-08-27T11:13:46.923Z,3.65
2022-08-27T11:18:51.610Z,2.67
2022-08-27T11:24:08.376Z,3.90
2022-08-27T11:29:16.224Z,4.13
2022-08-27T11:34:22.996Z,3.25
2022-08-27T11:39:49.796Z,3.23
2022-08-27T11:44:50.551Z,3.10
2022-08-27T11:49:53.472Z,3.78
2022-08-27T11:54:53.012Z,2.95
2022-08-27T11:59:49.402Z,3.78
2022-08-27T12:04:45.894Z,4.53
2022-08-27T12:09:56.399Z,3.88
2022-08-27T12:15:23.955Z,4.87
2022-08-27T12:20:43.446Z,3.88
2022-08-27T12:25:40.046Z,2.70
2022-08-27T12:30:42.398Z,2.85
2022-08-27T12:35:46.339Z,3.90
2022-08-27T12:40:52.019Z,3.78
2022-08-27T12:45:58.359Z,2.97
2022-08-27T12:50:58.134Z,3.20
2022-08-27T12:56:03.138Z,2.80
2022-08-27T13:01:25.847Z,4.78
2022-08-27T13:06:34.314Z,4.18
2022-08-27T13:11:34.294Z,2.63
2022-08-27T13:16:31.226Z,2.70
2022-08-27T13:21:30.150Z,3.20
2022-08-27T13:26:29.904Z,2.72
2022-08-27T13:31:28.458Z,2.53
2022-08-27T13:36:48.846Z,3.55
2022-08-27T13:41:49.394Z,3.25
2022-08-27T13:46:51.918Z,3.13
2022-08-27T13:51:49.637Z,3.47
2022-08-27T14:02:11.835Z,2.40
2022-08-27T14:07:13.451Z,2.38
2022-08-27T14:12:10.652Z,2.38
2022-08-27T14:17:21.072Z,3.38
2022-08-27T14:22:17.989Z,2.97
2022-08-27T14:27:15.818Z,3.22
2022-08-27T14:32:12.206Z,2.58
2022-08-27T14:37:09.172Z,2.95
2022-08-27T14:42:06.279Z,2.45
2022-08-27T14:47:05.299Z,2.17
2022-08-27T14:52:08.202Z,3.22
2022-08-27T14:57:06.685Z,2.70
2022-08-27T15:02:06.919Z,2.55
2022-08-27T15:07:03.743Z,3.28
2022-08-27T15:12:00.771Z,2.50
2022-08-27T15:16:58.188Z,2.50
2022-08-27T15:22:00.556Z,3.10
2022-08-27T15:26:57.948Z,2.58
2022-08-27T15:31:55.302Z,2.67
2022-08-27T15:36:51.691Z,2.85
2022-08-27T15:42:05.838Z,2.65
2022-08-27T15:47:03.478Z,2.97
2022-08-27T15:52:00.656Z,3.17
2022-08-27T15:56:57.010Z,2.90
2022-08-27T16:01:54.679Z,3.00
2022-08-27T16:06:51.177Z,2.92
2022-08-27T16:11:48.248Z,2.38
2022-08-27T16:16:47.030Z,3.70
2022-08-27T16:21:43.803Z,2.97
2022-08-27T16:26:40.195Z,2.63
2022-08-27T16:31:37.498Z,2.55
2022-08-27T16:36:35.270Z,2.63
2022-08-27T16:41:32.000Z,2.83
2022-08-27T16:46:28.544Z,3.27
2022-08-27T16:51:34.777Z,1.58
2022-08-27T16:56:36.371Z,2.58
2022-08-27T17:01:34.414Z,2.38
2022-08-27T17:06:30.883Z,1.97
2022-08-27T17:11:30.664Z,1.88
2022-08-27T17:16:29.579Z,2.10
2022-08-27T17:21:30.057Z,3.33
2022-08-27T17:26:26.666Z,2.30
2022-08-27T17:31:28.388Z,1.88
2022-08-27T17:36:26.917Z,2.53
2022-08-27T17:41:33.919Z,2.28
2022-08-27T17:46:30.981Z,7.43
2022-08-27T17:51:27.925Z,2.25
2022-08-27T17:56:24.583Z,2.30
2022-08-27T18:01:24.979Z,2.60
2022-08-27T18:06:26.704Z,2.70
2022-08-27T18:11:24.042Z,2.47
2022-08-27T18:16:21.404Z,2.33
2022-08-27T18:21:25.360Z,1.88
2022-08-27T18:26:26.048Z,2.15
2022-08-27T18:31:27.389Z,2.40
2022-08-27T18:36:23.867Z,2.13
2022-08-27T18:41:20.566Z,2.65
2022-08-27T18:46:17.881Z,1.42
2022-08-27T18:51:16.239Z,2.80
2022-08-27T18:56:18.772Z,2.00
2022-08-27T19:01:23.507Z,1.85
2022-08-27T19:06:21.104Z,2.10
2022-08-27T19:11:17.918Z,2.17
2022-08-27T19:16:18.902Z,2.17
2022-08-27T19:21:15.447Z,1.63
2022-08-27T19:26:18.038Z,1.88
2022-08-27T19:31:15.782Z,1.80
2022-08-27T19:36:16.017Z,2.20
2022-08-27T19:41:12.993Z,1.88
2022-08-27T19:46:09.789Z,1.80
2022-08-27T19:51:06.353Z,1.70
2022-08-27T19:56:03.379Z,1.73
2022-08-27T20:00:59.842Z,1.70
2022-08-27T20:05:56.521Z,2.22
2022-08-27T20:10:53.175Z,2.47
2022-08-27T20:15:50.799Z,2.35
2022-08-27T20:20:48.103Z,1.40
2022-08-27T20:25:45.368Z,1.80
2022-08-27T20:35:41.561Z,2.65
2022-08-27T20:40:38.057Z,1.63
2022-08-27T20:45:34.497Z,2.45
2022-08-27T20:50:31.131Z,2.65
2022-08-27T20:55:28.226Z,2.40
2022-08-27T21:00:24.863Z,2.73
2022-08-27T21:05:23.112Z,3.15
2022-08-27T21:10:20.661Z,3.17
2022-08-27T21:15:17.796Z,1.88
2022-08-27T21:20:14.535Z,2.80
2022-08-27T21:25:13.334Z,2.63
2022-08-27T21:30:11.667Z,3.55
2022-08-27T21:35:08.669Z,3.35
2022-08-27T21:40:06.932Z,2.70
2022-08-27T21:45:03.990Z,2.72
2022-08-27T21:50:00.699Z,3.73
2022-08-27T21:54:57.070Z,2.67
2022-08-27T21:59:53.722Z,3.15
2022-08-27T22:04:50.826Z,2.90
2022-08-27T22:09:47.190Z,2.67
2022-08-27T22:14:43.560Z,3.15
2022-08-27T22:19:39.945Z,3.33
2022-08-27T22:24:36.347Z,2.20
2022-08-27T22:29:32.739Z,3.17
2022-08-27T22:34:29.137Z,2.72
2022-08-27T22:39:25.526Z,2.60
2022-08-27T22:44:22.911Z,2.28
2022-08-27T22:49:19.396Z,3.50
2022-08-27T22:54:17.437Z,3.70
